sensor_id;sensor_type;location;lat;lon;timestamp;P1;durP1;ratioP1;P2;durP2;ratioP2
64029;SDS011;50277;52.064;4.492;2023-03-15T00:00:36;4.97;;;1.23;;
64029;SDS011;50277;52.064;4.492;2023-03-15T00:03:01;8.48;;;1.10;;
64029;SDS011;50277;52.064;4.492;2023-03-15T00:05:28;5.45;;;1.08;;
64029;SDS011;50277;52.064;4.492;2023-03-15T00:07:53;5.60;;;0.80;;
64029;SDS011;50277;52.064;4.492;2023-03-15T00:10:18;2.35;;;1.13;;
64029;SDS011;50277;52.064;4.492;2023-03-15T00:12:44;3.97;;;1.00;;
64029;SDS011;50277;52.064;4.492;2023-03-15T00:15:12;1.98;;;0.70;;
64029;SDS011;50277;52.064;4.492;2023-03-15T00:17:38;3.00;;;1.08;;
64029;SDS011;50277;52.064;4.492;2023-03-15T00:20:03;3.90;;;1.10;;
64029;SDS011;50277;52.064;4.492;2023-03-15T00:22:30;4.47;;;1.05;;
64029;SDS011;50277;52.064;4.492;2023-03-15T00:24:56;3.15;;;1.20;;
64029;SDS011;50277;52.064;4.492;2023-03-15T00:27:21;2.75;;;0.73;;
64029;SDS011;50277;52.064;4.492;2023-03-15T00:29:46;4.43;;;1.00;;
64029;SDS011;50277;52.064;4.492;2023-03-15T00:32:11;3.60;;;1.20;;
64029;SDS011;50277;52.064;4.492;2023-03-15T00:34:37;2.72;;;1.42;;
64029;SDS011;50277;52.064;4.492;2023-03-15T00:37:03;4.53;;;1.10;;
64029;SDS011;50277;52.064;4.492;2023-03-15T00:39:28;4.63;;;0.95;;
64029;SDS011;50277;52.064;4.492;2023-03-15T00:41:54;4.38;;;1.42;;
64029;SDS011;50277;52.064;4.492;2023-03-15T00:44:22;2.13;;;0.73;;
64029;SDS011;50277;52.064;4.492;2023-03-15T00:46:48;1.85;;;1.08;;
64029;SDS011;50277;52.064;4.492;2023-03-15T00:49:13;3.30;;;1.05;;
64029;SDS011;50277;52.064;4.492;2023-03-15T00:51:39;2.05;;;1.02;;
64029;SDS011;50277;52.064;4.492;2023-03-15T00:54:04;5.60;;;1.92;;
64029;SDS011;50277;52.064;4.492;2023-03-15T00:56:29;5.53;;;0.98;;
64029;SDS011;50277;52.064;4.492;2023-03-15T00:58:55;3.22;;;1.00;;
64029;SDS011;50277;52.064;4.492;2023-03-15T01:01:22;1.48;;;0.90;;
64029;SDS011;50277;52.064;4.492;2023-03-15T01:03:49;5.63;;;0.97;;
64029;SDS011;50277;52.064;4.492;2023-03-15T01:06:22;2.40;;;1.00;;
64029;SDS011;50277;52.064;4.492;2023-03-15T01:08:48;1.65;;;0.90;;
64029;SDS011;50277;52.064;4.492;2023-03-15T01:11:19;5.57;;;1.33;;
64029;SDS011;50277;52.064;4.492;2023-03-15T01:13:48;4.85;;;1.23;;
64029;SDS011;50277;52.064;4.492;2023-03-15T01:16:14;3.50;;;0.95;;
64029;SDS011;50277;52.064;4.492;2023-03-15T01:18:40;4.70;;;1.33;;
64029;SDS011;50277;52.064;4.492;2023-03-15T01:21:06;2.88;;;1.00;;
64029;SDS011;50277;52.064;4.492;2023-03-15T01:23:32;2.42;;;0.95;;
64029;SDS011;50277;52.064;4.492;2023-03-15T01:26:01;2.92;;;0.90;;
64029;SDS011;50277;52.064;4.492;2023-03-15T01:28:27;4.00;;;0.88;;
64029;SDS011;50277;52.064;4.492;2023-03-15T01:30:52;3.60;;;1.10;;
64029;SDS011;50277;52.064;4.492;2023-03-15T01:33:19;4.63;;;1.00;;
64029;SDS011;50277;52.064;4.492;2023-03-15T01:35:45;5.35;;;1.08;;
64029;SDS011;50277;52.064;4.492;2023-03-15T01:38:11;7.65;;;1.33;;
64029;SDS011;50277;52.064;4.492;2023-03-15T01:40:43;3.33;;;1.05;;
64029;SDS011;50277;52.064;4.492;2023-03-15T01:48:31;4.00;;;1.60;;
64029;SDS011;50277;52.064;4.492;2023-03-15T01:51:21;6.75;;;1.00;;
64029;SDS011;50277;52.064;4.492;2023-03-15T01:53:51;3.70;;;0.75;;
64029;SDS011;50277;52.064;4.492;2023-03-15T01:56:21;3.63;;;0.93;;
64029;SDS011;50277;52.064;4.492;2023-03-15T01:58:47;2.22;;;0.80;;
64029;SDS011;50277;52.064;4.492;2023-03-15T02:01:15;1.70;;;0.88;;
64029;SDS011;50277;52.064;4.492;2023-03-15T02:03:42;1.95;;;0.80;;
64029;SDS011;50277;52.064;4.492;2023-03-15T02:06:10;1.48;;;0.70;;
64029;SDS011;50277;52.064;4.492;2023-03-15T02:08:42;5.65;;;0.95;;
64029;SDS011;50277;52.064;4.492;2023-03-15T02:11:14;4.72;;;0.63;;
64029;SDS011;50277;52.064;4.492;2023-03-15T02:13:42;5.43;;;0.82;;
64029;SDS011;50277;52.064;4.492;2023-03-15T02:16:07;6.28;;;1.10;;
64029;SDS011;50277;52.064;4.492;2023-03-15T02:18:33;3.00;;;1.10;;
64029;SDS011;50277;52.064;4.492;2023-03-15T02:23:34;1.15;;;0.82;;
64029;SDS011;50277;52.064;4.492;2023-03-15T02:26:20;2.97;;;1.30;;
64029;SDS011;50277;52.064;4.492;2023-03-15T02:28:57;2.63;;;1.20;;
64029;SDS011;50277;52.064;4.492;2023-03-15T02:31:23;2.45;;;0.70;;
64029;SDS011;50277;52.064;4.492;2023-03-15T02:33:49;2.33;;;0.98;;
64029;SDS011;50277;52.064;4.492;2023-03-15T02:36:22;2.05;;;0.95;;
64029;SDS011;50277;52.064;4.492;2023-03-15T02:38:49;1.02;;;0.80;;
64029;SDS011;50277;52.064;4.492;2023-03-15T02:41:20;4.95;;;1.10;;
64029;SDS011;50277;52.064;4.492;2023-03-15T02:43:52;4.28;;;1.10;;
64029;SDS011;50277;52.064;4.492;2023-03-15T02:46:19;0.77;;;0.65;;
64029;SDS011;50277;52.064;4.492;2023-03-15T02:48:45;4.57;;;1.00;;
64029;SDS011;50277;52.064;4.492;2023-03-15T02:51:21;3.97;;;0.82;;
64029;SDS011;50277;52.064;4.492;2023-03-15T02:53:48;2.67;;;1.00;;
64029;SDS011;50277;52.064;4.492;2023-03-15T02:56:14;2.03;;;1.02;;
64029;SDS011;50277;52.064;4.492;2023-03-15T02:58:40;3.88;;;0.95;;
64029;SDS011;50277;52.064;4.492;2023-03-15T03:01:09;6.07;;;1.13;;
64029;SDS011;50277;52.064;4.492;2023-03-15T03:03:37;2.05;;;0.90;;
64029;SDS011;50277;52.064;4.492;2023-03-15T03:06:02;2.05;;;0.93;;
64029;SDS011;50277;52.064;4.492;2023-03-15T03:08:28;5.95;;;1.13;;
64029;SDS011;50277;52.064;4.492;2023-03-15T03:10:53;2.60;;;1.08;;
64029;SDS011;50277;52.064;4.492;2023-03-15T03:13:18;5.03;;;0.85;;
64029;SDS011;50277;52.064;4.492;2023-03-15T03:15:44;9.80;;;1.33;;
64029;SDS011;50277;52.064;4.492;2023-03-15T03:18:09;8.18;;;1.60;;
64029;SDS011;50277;52.064;4.492;2023-03-15T03:20:34;6.82;;;1.13;;
64029;SDS011;50277;52.064;4.492;2023-03-15T03:23:00;5.10;;;0.70;;
64029;SDS011;50277;52.064;4.492;2023-03-15T03:25:30;2.72;;;0.77;;
64029;SDS011;50277;52.064;4.492;2023-03-15T03:27:56;3.05;;;1.08;;
64029;SDS011;50277;52.064;4.492;2023-03-15T03:30:22;1.40;;;0.88;;
64029;SDS011;50277;52.064;4.492;2023-03-15T03:32:48;9.93;;;0.88;;
64029;SDS011;50277;52.064;4.492;2023-03-15T03:35:13;2.70;;;1.10;;
64029;SDS011;50277;52.064;4.492;2023-03-15T03:37:39;4.47;;;1.20;;
64029;SDS011;50277;52.064;4.492;2023-03-15T03:40:04;1.85;;;0.75;;
64029;SDS011;50277;52.064;4.492;2023-03-15T03:42:32;3.03;;;1.02;;
64029;SDS011;50277;52.064;4.492;2023-03-15T03:44:58;9.30;;;1.25;;
64029;SDS011;50277;52.064;4.492;2023-03-15T03:47:23;2.85;;;1.05;;
64029;SDS011;50277;52.064;4.492;2023-03-15T03:49:48;1.80;;;0.95;;
64029;SDS011;50277;52.064;4.492;2023-03-15T03:52:14;3.22;;;0.70;;
64029;SDS011;50277;52.064;4.492;2023-03-15T03:54:39;3.38;;;1.05;;
64029;SDS011;50277;52.064;4.492;2023-03-15T03:57:06;3.58;;;0.85;;
64029;SDS011;50277;52.064;4.492;2023-03-15T03:59:32;3.05;;;0.90;;
64029;SDS011;50277;52.064;4.492;2023-03-15T04:01:57;3.50;;;0.80;;
64029;SDS011;50277;52.064;4.492;2023-03-15T04:04:22;1.73;;;0.70;;
64029;SDS011;50277;52.064;4.492;2023-03-15T04:06:50;1.55;;;0.70;;
64029;SDS011;50277;52.064;4.492;2023-03-15T04:09:15;2.85;;;0.93;;
64029;SDS011;50277;52.064;4.492;2023-03-15T04:11:41;2.42;;;0.73;;
64029;SDS011;50277;52.064;4.492;2023-03-15T04:14:08;3.55;;;1.10;;
64029;SDS011;50277;52.064;4.492;2023-03-15T04:16:34;7.60;;;1.67;;
64029;SDS011;50277;52.064;4.492;2023-03-15T04:18:59;2.35;;;0.60;;
64029;SDS011;50277;52.064;4.492;2023-03-15T04:21:25;3.72;;;0.80;;
64029;SDS011;50277;52.064;4.492;2023-03-15T04:23:50;6.03;;;0.88;;
64029;SDS011;50277;52.064;4.492;2023-03-15T04:26:15;2.58;;;1.05;;
64029;SDS011;50277;52.064;4.492;2023-03-15T04:28:41;4.15;;;1.02;;
64029;SDS011;50277;52.064;4.492;2023-03-15T04:31:06;7.25;;;1.25;;
64029;SDS011;50277;52.064;4.492;2023-03-15T04:33:34;6.88;;;2.38;;
64029;SDS011;50277;52.064;4.492;2023-03-15T04:36:00;6.10;;;1.20;;
64029;SDS011;50277;52.064;4.492;2023-03-15T04:38:26;1.25;;;1.00;;
64029;SDS011;50277;52.064;4.492;2023-03-15T04:40:52;2.08;;;1.00;;
64029;SDS011;50277;52.064;4.492;2023-03-15T04:43:21;2.30;;;1.23;;
64029;SDS011;50277;52.064;4.492;2023-03-15T04:45:48;1.80;;;1.42;;
64029;SDS011;50277;52.064;4.492;2023-03-15T04:48:13;3.78;;;1.25;;
64029;SDS011;50277;52.064;4.492;2023-03-15T04:50:39;5.57;;;1.75;;
64029;SDS011;50277;52.064;4.492;2023-03-15T04:53:04;4.00;;;1.10;;
64029;SDS011;50277;52.064;4.492;2023-03-15T04:55:29;4.70;;;1.55;;
64029;SDS011;50277;52.064;4.492;2023-03-15T04:57:55;7.82;;;1.33;;
64029;SDS011;50277;52.064;4.492;2023-03-15T05:00:21;2.42;;;1.30;;
64029;SDS011;50277;52.064;4.492;2023-03-15T05:02:46;4.22;;;1.30;;
64029;SDS011;50277;52.064;4.492;2023-03-15T05:05:18;3.55;;;1.00;;
64029;SDS011;50277;52.064;4.492;2023-03-15T05:07:45;8.73;;;2.10;;
64029;SDS011;50277;52.064;4.492;2023-03-15T05:10:10;12.80;;;2.17;;
64029;SDS011;50277;52.064;4.492;2023-03-15T05:12:36;6.85;;;1.50;;
64029;SDS011;50277;52.064;4.492;2023-03-15T05:15:01;7.55;;;3.28;;
64029;SDS011;50277;52.064;4.492;2023-03-15T05:17:26;7.53;;;1.88;;
64029;SDS011;50277;52.064;4.492;2023-03-15T05:19:52;6.68;;;1.77;;
64029;SDS011;50277;52.064;4.492;2023-03-15T05:22:17;7.82;;;1.60;;
64029;SDS011;50277;52.064;4.492;2023-03-15T05:24:43;3.33;;;1.50;;
64029;SDS011;50277;52.064;4.492;2023-03-15T05:27:08;6.65;;;1.88;;
64029;SDS011;50277;52.064;4.492;2023-03-15T05:29:35;7.22;;;1.70;;
64029;SDS011;50277;52.064;4.492;2023-03-15T05:32:01;13.65;;;5.32;;
64029;SDS011;50277;52.064;4.492;2023-03-15T05:34:28;10.15;;;4.22;;
64029;SDS011;50277;52.064;4.492;2023-03-15T05:36:56;10.43;;;3.72;;
64029;SDS011;50277;52.064;4.492;2023-03-15T05:39:22;7.97;;;2.30;;
64029;SDS011;50277;52.064;4.492;2023-03-15T05:41:48;6.45;;;1.83;;
64029;SDS011;50277;52.064;4.492;2023-03-15T05:44:13;7.18;;;1.98;;
64029;SDS011;50277;52.064;4.492;2023-03-15T05:46:38;4.32;;;1.50;;
64029;SDS011;50277;52.064;4.492;2023-03-15T05:49:04;7.60;;;1.50;;
64029;SDS011;50277;52.064;4.492;2023-03-15T05:51:29;6.60;;;1.70;;
64029;SDS011;50277;52.064;4.492;2023-03-15T05:53:54;5.80;;;1.85;;
64029;SDS011;50277;52.064;4.492;2023-03-15T05:56:20;5.25;;;1.55;;
64029;SDS011;50277;52.064;4.492;2023-03-15T05:58:45;11.73;;;2.25;;
64029;SDS011;50277;52.064;4.492;2023-03-15T06:01:10;11.00;;;2.20;;
64029;SDS011;50277;52.064;4.492;2023-03-15T06:03:35;14.73;;;2.40;;
64029;SDS011;50277;52.064;4.492;2023-03-15T06:06:01;8.65;;;1.90;;
64029;SDS011;50277;52.064;4.492;2023-03-15T06:08:27;6.47;;;1.55;;
64029;SDS011;50277;52.064;4.492;2023-03-15T06:10:52;8.05;;;1.40;;
64029;SDS011;50277;52.064;4.492;2023-03-15T06:13:18;9.02;;;1.67;;
64029;SDS011;50277;52.064;4.492;2023-03-15T06:15:45;8.98;;;1.88;;
64029;SDS011;50277;52.064;4.492;2023-03-15T06:18:11;4.30;;;1.63;;
64029;SDS011;50277;52.064;4.492;2023-03-15T06:20:37;8.88;;;1.77;;
64029;SDS011;50277;52.064;4.492;2023-03-15T06:23:03;12.07;;;2.05;;
64029;SDS011;50277;52.064;4.492;2023-03-15T06:25:29;8.05;;;1.83;;
64029;SDS011;50277;52.064;4.492;2023-03-15T06:27:54;6.70;;;1.73;;
64029;SDS011;50277;52.064;4.492;2023-03-15T06:30:20;5.47;;;2.10;;
64029;SDS011;50277;52.064;4.492;2023-03-15T06:32:45;9.95;;;2.05;;
64029;SDS011;50277;52.064;4.492;2023-03-15T06:35:11;5.95;;;1.77;;
64029;SDS011;50277;52.064;4.492;2023-03-15T06:37:36;10.10;;;1.88;;
64029;SDS011;50277;52.064;4.492;2023-03-15T06:40:02;9.02;;;1.48;;
64029;SDS011;50277;52.064;4.492;2023-03-15T06:42:32;6.65;;;1.30;;
64029;SDS011;50277;52.064;4.492;2023-03-15T06:44:57;9.27;;;1.42;;
64029;SDS011;50277;52.064;4.492;2023-03-15T06:47:23;9.43;;;1.92;;
64029;SDS011;50277;52.064;4.492;2023-03-15T06:49:48;7.03;;;1.60;;
64029;SDS011;50277;52.064;4.492;2023-03-15T06:52:16;7.00;;;2.05;;
64029;SDS011;50277;52.064;4.492;2023-03-15T06:54:42;9.02;;;2.10;;
64029;SDS011;50277;52.064;4.492;2023-03-15T06:57:07;6.90;;;1.92;;
64029;SDS011;50277;52.064;4.492;2023-03-15T06:59:33;4.88;;;1.85;;
64029;SDS011;50277;52.064;4.492;2023-03-15T07:01:58;9.88;;;2.50;;
64029;SDS011;50277;52.064;4.492;2023-03-15T07:04:23;8.10;;;1.85;;
64029;SDS011;50277;52.064;4.492;2023-03-15T07:06:49;8.50;;;2.10;;
64029;SDS011;50277;52.064;4.492;2023-03-15T07:09:14;7.60;;;1.75;;
64029;SDS011;50277;52.064;4.492;2023-03-15T07:11:39;8.98;;;2.25;;
64029;SDS011;50277;52.064;4.492;2023-03-15T07:14:05;7.75;;;1.20;;
64029;SDS011;50277;52.064;4.492;2023-03-15T07:16:30;6.78;;;1.50;;
64029;SDS011;50277;52.064;4.492;2023-03-15T07:18:55;6.10;;;1.55;;
64029;SDS011;50277;52.064;4.492;2023-03-15T07:21:23;6.65;;;1.52;;
64029;SDS011;50277;52.064;4.492;2023-03-15T07:23:48;9.48;;;1.90;;
64029;SDS011;50277;52.064;4.492;2023-03-15T07:26:13;10.20;;;2.33;;
64029;SDS011;50277;52.064;4.492;2023-03-15T07:28:39;12.35;;;2.10;;
64029;SDS011;50277;52.064;4.492;2023-03-15T07:31:04;3.83;;;1.80;;
64029;SDS011;50277;52.064;4.492;2023-03-15T07:33:31;5.75;;;1.45;;
64029;SDS011;50277;52.064;4.492;2023-03-15T07:35:57;6.57;;;2.28;;
64029;SDS011;50277;52.064;4.492;2023-03-15T07:38:24;8.73;;;1.75;;
64029;SDS011;50277;52.064;4.492;2023-03-15T07:40:50;6.73;;;2.13;;
64029;SDS011;50277;52.064;4.492;2023-03-15T07:43:16;15.63;;;2.47;;
64029;SDS011;50277;52.064;4.492;2023-03-15T07:45:42;8.07;;;1.90;;
64029;SDS011;50277;52.064;4.492;2023-03-15T07:48:07;8.10;;;1.92;;
64029;SDS011;50277;52.064;4.492;2023-03-15T07:50:32;8.98;;;2.40;;
64029;SDS011;50277;52.064;4.492;2023-03-15T07:52:58;7.85;;;2.22;;
64029;SDS011;50277;52.064;4.492;2023-03-15T07:55:23;7.30;;;2.05;;
64029;SDS011;50277;52.064;4.492;2023-03-15T07:57:49;6.50;;;2.10;;
64029;SDS011;50277;52.064;4.492;2023-03-15T08:00:15;7.57;;;2.25;;
64029;SDS011;50277;52.064;4.492;2023-03-15T08:02:41;6.43;;;2.45;;
64029;SDS011;50277;52.064;4.492;2023-03-15T08:05:07;7.65;;;2.70;;
64029;SDS011;50277;52.064;4.492;2023-03-15T08:07:32;4.43;;;2.05;;
64029;SDS011;50277;52.064;4.492;2023-03-15T08:09:57;9.18;;;2.55;;
64029;SDS011;50277;52.064;4.492;2023-03-15T08:12:23;6.60;;;2.30;;
64029;SDS011;50277;52.064;4.492;2023-03-15T08:14:49;8.85;;;2.90;;
64029;SDS011;50277;52.064;4.492;2023-03-15T08:17:15;5.40;;;2.30;;
64029;SDS011;50277;52.064;4.492;2023-03-15T08:19:41;4.70;;;2.60;;
64029;SDS011;50277;52.064;4.492;2023-03-15T08:22:06;6.93;;;1.98;;
64029;SDS011;50277;52.064;4.492;2023-03-15T08:24:32;6.15;;;2.40;;
64029;SDS011;50277;52.064;4.492;2023-03-15T08:26:57;10.25;;;2.65;;
64029;SDS011;50277;52.064;4.492;2023-03-15T08:29:23;6.35;;;2.38;;
64029;SDS011;50277;52.064;4.492;2023-03-15T08:31:48;8.50;;;2.47;;
64029;SDS011;50277;52.064;4.492;2023-03-15T08:34:13;6.38;;;2.30;;
64029;SDS011;50277;52.064;4.492;2023-03-15T08:36:40;7.03;;;2.22;;
64029;SDS011;50277;52.064;4.492;2023-03-15T08:39:05;5.85;;;2.50;;
64029;SDS011;50277;52.064;4.492;2023-03-15T08:41:31;8.50;;;2.85;;
64029;SDS011;50277;52.064;4.492;2023-03-15T08:43:56;4.18;;;2.30;;
64029;SDS011;50277;52.064;4.492;2023-03-15T08:46:22;9.45;;;2.60;;
64029;SDS011;50277;52.064;4.492;2023-03-15T08:48:47;6.75;;;2.42;;
64029;SDS011;50277;52.064;4.492;2023-03-15T08:51:12;8.05;;;1.98;;
64029;SDS011;50277;52.064;4.492;2023-03-15T08:53:38;4.47;;;2.03;;
64029;SDS011;50277;52.064;4.492;2023-03-15T08:56:04;3.25;;;2.08;;
64029;SDS011;50277;52.064;4.492;2023-03-15T08:58:30;5.65;;;2.08;;
64029;SDS011;50277;52.064;4.492;2023-03-15T09:00:55;4.10;;;2.00;;
64029;SDS011;50277;52.064;4.492;2023-03-15T09:03:21;6.60;;;2.50;;
64029;SDS011;50277;52.064;4.492;2023-03-15T09:05:47;6.80;;;2.63;;
64029;SDS011;50277;52.064;4.492;2023-03-15T09:08:12;6.65;;;2.53;;
64029;SDS011;50277;52.064;4.492;2023-03-15T09:10:38;4.40;;;2.05;;
64029;SDS011;50277;52.064;4.492;2023-03-15T09:13:03;5.03;;;2.28;;
64029;SDS011;50277;52.064;4.492;2023-03-15T09:15:29;6.55;;;3.47;;
64029;SDS011;50277;52.064;4.492;2023-03-15T09:17:54;6.57;;;3.08;;
64029;SDS011;50277;52.064;4.492;2023-03-15T09:20:20;4.78;;;2.58;;
64029;SDS011;50277;52.064;4.492;2023-03-15T09:22:56;6.22;;;2.40;;
64029;SDS011;50277;52.064;4.492;2023-03-15T09:25:22;5.10;;;2.50;;
64029;SDS011;50277;52.064;4.492;2023-03-15T09:27:49;7.75;;;2.45;;
64029;SDS011;50277;52.064;4.492;2023-03-15T09:30:14;4.20;;;2.15;;
64029;SDS011;50277;52.064;4.492;2023-03-15T09:32:40;5.47;;;1.98;;
64029;SDS011;50277;52.064;4.492;2023-03-15T09:35:07;6.63;;;2.03;;
64029;SDS011;50277;52.064;4.492;2023-03-15T09:37:36;8.95;;;2.55;;
64029;SDS011;50277;52.064;4.492;2023-03-15T09:40:02;6.32;;;1.90;;
64029;SDS011;50277;52.064;4.492;2023-03-15T09:45:16;7.00;;;2.30;;
64029;SDS011;50277;52.064;4.492;2023-03-15T09:47:52;6.72;;;2.38;;
64029;SDS011;50277;52.064;4.492;2023-03-15T09:53:23;6.55;;;2.55;;
64029;SDS011;50277;52.064;4.492;2023-03-15T09:55:53;7.18;;;2.28;;
64029;SDS011;50277;52.064;4.492;2023-03-15T09:58:27;6.20;;;2.20;;
64029;SDS011;50277;52.064;4.492;2023-03-15T10:00:59;7.53;;;2.05;;
64029;SDS011;50277;52.064;4.492;2023-03-15T10:06:16;8.07;;;1.85;;
64029;SDS011;50277;52.064;4.492;2023-03-15T10:08:44;5.85;;;1.88;;
64029;SDS011;50277;52.064;4.492;2023-03-15T10:11:13;5.80;;;2.22;;
64029;SDS011;50277;52.064;4.492;2023-03-15T10:13:44;7.20;;;1.77;;
64029;SDS011;50277;52.064;4.492;2023-03-15T10:24:33;5.45;;;2.00;;
64029;SDS011;50277;52.064;4.492;2023-03-15T10:27:07;6.63;;;1.77;;
64029;SDS011;50277;52.064;4.492;2023-03-15T10:29:54;5.80;;;1.75;;
64029;SDS011;50277;52.064;4.492;2023-03-15T10:32:21;7.40;;;2.10;;
64029;SDS011;50277;52.064;4.492;2023-03-15T10:34:50;4.13;;;1.95;;
64029;SDS011;50277;52.064;4.492;2023-03-15T10:37:17;7.90;;;1.95;;
64029;SDS011;50277;52.064;4.492;2023-03-15T10:39:47;4.43;;;1.90;;
64029;SDS011;50277;52.064;4.492;2023-03-15T10:42:24;5.70;;;2.20;;
64029;SDS011;50277;52.064;4.492;2023-03-15T10:44:54;5.05;;;2.33;;
64029;SDS011;50277;52.064;4.492;2023-03-15T10:47:20;6.18;;;2.03;;
64029;SDS011;50277;52.064;4.492;2023-03-15T10:49:46;4.85;;;1.83;;
64029;SDS011;50277;52.064;4.492;2023-03-15T10:55:10;6.93;;;1.95;;
64029;SDS011;50277;52.064;4.492;2023-03-15T10:57:40;6.15;;;2.30;;
64029;SDS011;50277;52.064;4.492;2023-03-15T11:03:05;3.55;;;1.73;;
64029;SDS011;50277;52.064;4.492;2023-03-15T11:05:42;6.83;;;2.13;;
64029;SDS011;50277;52.064;4.492;2023-03-15T11:08:13;4.13;;;1.67;;
64029;SDS011;50277;52.064;4.492;2023-03-15T11:10:40;3.03;;;1.63;;
64029;SDS011;50277;52.064;4.492;2023-03-15T11:13:19;8.85;;;2.20;;
64029;SDS011;50277;52.064;4.492;2023-03-15T11:16:07;8.60;;;2.50;;
64029;SDS011;50277;52.064;4.492;2023-03-15T11:18:45;3.60;;;1.85;;
64029;SDS011;50277;52.064;4.492;2023-03-15T11:21:12;4.90;;;2.25;;
64029;SDS011;50277;52.064;4.492;2023-03-15T11:23:39;4.25;;;1.63;;
64029;SDS011;50277;52.064;4.492;2023-03-15T11:26:08;7.63;;;2.30;;
64029;SDS011;50277;52.064;4.492;2023-03-15T11:28:42;5.80;;;2.05;;
64029;SDS011;50277;52.064;4.492;2023-03-15T11:31:11;6.07;;;2.55;;
64029;SDS011;50277;52.064;4.492;2023-03-15T11:36:39;5.65;;;2.30;;
64029;SDS011;50277;52.064;4.492;2023-03-15T11:39:07;5.25;;;2.00;;
64029;SDS011;50277;52.064;4.492;2023-03-15T11:44:26;6.50;;;2.38;;
64029;SDS011;50277;52.064;4.492;2023-03-15T11:47:02;8.05;;;2.22;;
64029;SDS011;50277;52.064;4.492;2023-03-15T11:49:48;9.35;;;2.53;;
64029;SDS011;50277;52.064;4.492;2023-03-15T11:52:16;4.88;;;1.77;;
64029;SDS011;50277;52.064;4.492;2023-03-15T11:54:42;5.53;;;2.03;;
64029;SDS011;50277;52.064;4.492;2023-03-15T11:59:52;5.90;;;1.45;;
64029;SDS011;50277;52.064;4.492;2023-03-15T12:04:44;8.77;;;1.50;;
64029;SDS011;50277;52.064;4.492;2023-03-15T12:09:39;5.32;;;2.08;;
64029;SDS011;50277;52.064;4.492;2023-03-15T12:17:45;1.58;;;1.02;;
64029;SDS011;50277;52.064;4.492;2023-03-15T12:25:34;6.03;;;1.20;;
64029;SDS011;50277;52.064;4.492;2023-03-15T12:28:04;2.33;;;1.20;;
64029;SDS011;50277;52.064;4.492;2023-03-15T12:30:36;3.95;;;1.48;;
64029;SDS011;50277;52.064;4.492;2023-03-15T12:33:03;3.88;;;1.40;;
64029;SDS011;50277;52.064;4.492;2023-03-15T12:35:38;6.85;;;1.58;;
64029;SDS011;50277;52.064;4.492;2023-03-15T12:38:09;3.45;;;1.30;;
64029;SDS011;50277;52.064;4.492;2023-03-15T12:40:38;3.67;;;1.20;;
64029;SDS011;50277;52.064;4.492;2023-03-15T12:43:09;5.28;;;1.50;;
64029;SDS011;50277;52.064;4.492;2023-03-15T12:45:38;2.35;;;1.23;;
64029;SDS011;50277;52.064;4.492;2023-03-15T12:53:28;6.57;;;1.65;;
64029;SDS011;50277;52.064;4.492;2023-03-15T12:58:43;5.22;;;2.00;;
64029;SDS011;50277;52.064;4.492;2023-03-15T13:01:11;2.08;;;1.40;;
64029;SDS011;50277;52.064;4.492;2023-03-15T13:03:40;4.68;;;1.40;;
64029;SDS011;50277;52.064;4.492;2023-03-15T13:06:08;4.07;;;1.63;;
64029;SDS011;50277;52.064;4.492;2023-03-15T13:19:26;2.55;;;1.25;;
64029;SDS011;50277;52.064;4.492;2023-03-15T13:22:08;10.88;;;2.10;;
64029;SDS011;50277;52.064;4.492;2023-03-15T13:27:33;6.60;;;1.30;;
64029;SDS011;50277;52.064;4.492;2023-03-15T13:30:47;2.63;;;1.02;;
64029;SDS011;50277;52.064;4.492;2023-03-15T13:35:44;2.13;;;1.05;;
64029;SDS011;50277;52.064;4.492;2023-03-15T13:38:45;2.53;;;1.40;;
64029;SDS011;50277;52.064;4.492;2023-03-15T13:41:03;5.60;;;1.45;;
64029;SDS011;50277;52.064;4.492;2023-03-15T13:43:35;3.42;;;1.30;;
64029;SDS011;50277;52.064;4.492;2023-03-15T13:46:03;3.05;;;1.00;;
64029;SDS011;50277;52.064;4.492;2023-03-15T13:48:33;3.25;;;1.33;;
64029;SDS011;50277;52.064;4.492;2023-03-15T13:51:22;5.55;;;1.75;;
64029;SDS011;50277;52.064;4.492;2023-03-15T13:53:49;3.72;;;1.35;;
64029;SDS011;50277;52.064;4.492;2023-03-15T13:56:17;2.97;;;1.10;;
64029;SDS011;50277;52.064;4.492;2023-03-15T13:58:44;3.03;;;1.47;;
64029;SDS011;50277;52.064;4.492;2023-03-15T14:01:10;4.85;;;1.40;;
64029;SDS011;50277;52.064;4.492;2023-03-15T14:03:37;3.58;;;1.08;;
64029;SDS011;50277;52.064;4.492;2023-03-15T14:06:05;4.15;;;1.17;;
64029;SDS011;50277;52.064;4.492;2023-03-15T14:08:32;3.72;;;0.98;;
64029;SDS011;50277;52.064;4.492;2023-03-15T14:13:30;3.30;;;1.17;;
64029;SDS011;50277;52.064;4.492;2023-03-15T14:15:58;3.08;;;1.25;;
64029;SDS011;50277;52.064;4.492;2023-03-15T14:18:31;7.85;;;1.67;;
64029;SDS011;50277;52.064;4.492;2023-03-15T14:20:57;10.23;;;1.17;;
64029;SDS011;50277;52.064;4.492;2023-03-15T14:23:25;2.47;;;1.52;;
64029;SDS011;50277;52.064;4.492;2023-03-15T14:25:55;3.15;;;1.15;;
64029;SDS011;50277;52.064;4.492;2023-03-15T14:28:37;4.85;;;1.20;;
64029;SDS011;50277;52.064;4.492;2023-03-15T14:31:03;2.78;;;1.25;;
64029;SDS011;50277;52.064;4.492;2023-03-15T14:33:30;3.58;;;1.08;;
64029;SDS011;50277;52.064;4.492;2023-03-15T14:36:03;3.00;;;1.42;;
64029;SDS011;50277;52.064;4.492;2023-03-15T14:38:32;3.97;;;1.23;;
64029;SDS011;50277;52.064;4.492;2023-03-15T14:41:09;2.53;;;1.20;;
64029;SDS011;50277;52.064;4.492;2023-03-15T14:43:42;5.72;;;1.52;;
64029;SDS011;50277;52.064;4.492;2023-03-15T14:46:07;3.10;;;0.90;;
64029;SDS011;50277;52.064;4.492;2023-03-15T14:48:33;3.08;;;1.50;;
64029;SDS011;50277;52.064;4.492;2023-03-15T14:50:58;1.70;;;1.00;;
64029;SDS011;50277;52.064;4.492;2023-03-15T14:53:24;4.40;;;1.27;;
64029;SDS011;50277;52.064;4.492;2023-03-15T14:55:51;2.75;;;0.80;;
64029;SDS011;50277;52.064;4.492;2023-03-15T14:58:18;4.18;;;1.05;;
64029;SDS011;50277;52.064;4.492;2023-03-15T15:00:45;2.88;;;1.00;;
64029;SDS011;50277;52.064;4.492;2023-03-15T15:03:58;2.60;;;1.25;;
64029;SDS011;50277;52.064;4.492;2023-03-15T15:05:59;1.38;;;1.10;;
64029;SDS011;50277;52.064;4.492;2023-03-15T15:08:25;2.70;;;1.00;;
64029;SDS011;50277;52.064;4.492;2023-03-15T15:10:51;2.25;;;0.90;;
64029;SDS011;50277;52.064;4.492;2023-03-15T15:13:18;2.50;;;0.93;;
64029;SDS011;50277;52.064;4.492;2023-03-15T15:15:45;2.08;;;0.75;;
64029;SDS011;50277;52.064;4.492;2023-03-15T15:18:10;4.28;;;0.80;;
64029;SDS011;50277;52.064;4.492;2023-03-15T15:20:36;2.85;;;0.80;;
64029;SDS011;50277;52.064;4.492;2023-03-15T15:23:02;1.88;;;0.93;;
64029;SDS011;50277;52.064;4.492;2023-03-15T15:25:27;1.25;;;0.73;;
64029;SDS011;50277;52.064;4.492;2023-03-15T15:27:54;1.95;;;1.08;;
64029;SDS011;50277;52.064;4.492;2023-03-15T15:30:21;2.58;;;1.77;;
64029;SDS011;50277;52.064;4.492;2023-03-15T15:35:15;1.67;;;1.03;;
64029;SDS011;50277;52.064;4.492;2023-03-15T15:37:42;3.05;;;1.58;;
64029;SDS011;50277;52.064;4.492;2023-03-15T15:40:15;2.88;;;1.17;;
64029;SDS011;50277;52.064;4.492;2023-03-15T15:42:45;2.60;;;0.95;;
64029;SDS011;50277;52.064;4.492;2023-03-15T15:45:11;0.90;;;0.73;;
64029;SDS011;50277;52.064;4.492;2023-03-15T15:47:38;2.05;;;0.80;;
64029;SDS011;50277;52.064;4.492;2023-03-15T15:50:04;4.63;;;1.23;;
64029;SDS011;50277;52.064;4.492;2023-03-15T15:52:30;2.22;;;1.00;;
64029;SDS011;50277;52.064;4.492;2023-03-15T15:54:55;3.22;;;1.10;;
64029;SDS011;50277;52.064;4.492;2023-03-15T15:57:20;1.05;;;0.90;;
64029;SDS011;50277;52.064;4.492;2023-03-15T15:59:53;1.23;;;1.10;;
64029;SDS011;50277;52.064;4.492;2023-03-15T16:02:18;1.30;;;1.20;;
64029;SDS011;50277;52.064;4.492;2023-03-15T16:04:47;1.88;;;1.30;;
64029;SDS011;50277;52.064;4.492;2023-03-15T16:07:13;1.88;;;1.40;;
64029;SDS011;50277;52.064;4.492;2023-03-15T16:09:39;4.40;;;1.60;;
64029;SDS011;50277;52.064;4.492;2023-03-15T16:12:13;1.38;;;1.27;;
64029;SDS011;50277;52.064;4.492;2023-03-15T16:14:39;1.02;;;1.02;;